Time;durP1;ratioP1;P1;durP2;ratioP2;P2;SDS_P1;SDS_P2;PMS_P1;PMS_P2;Temp;Humidity;BMP_temperature;BMP_pressure;BME280_temperature;BME280_humidity;BME280_pressure;Samples;Min_cycle;Max_cycle;Signal;HPM_P1;HPM_P2
2022/09/17 00:01:54;;;;;;;10.50;2.35;;;;;;;11.88;80.44;101258.91;5013760;28;20069;-83
2022/09/17 00:04:19;;;;;;;8.75;2.22;;;;;;;11.88;80.46;101258.03;4996722;28;20038;-82
2022/09/17 00:06:45;;;;;;;7.18;2.30;;;;;;;11.92;80.21;101268.69;5013756;28;20080;-83
2022/09/17 00:09:10;;;;;;;6.63;2.13;;;;;;;11.95;80.06;101265.19;5013722;28;20116;-83
2022/09/17 00:11:39;;;;;;;12.18;2.60;;;;;;;11.99;80.06;101281.13;5013706;28;20041;-83
2022/09/17 00:14:08;;;;;;;12.35;2.85;;;;;;;11.99;79.68;101274.91;4996116;28;20424;-83
2022/09/17 00:16:36;;;;;;;9.35;2.42;;;;;;;12.00;80.13;101289.97;5013932;28;20030;-83
2022/09/17 00:19:04;;;;;;;13.27;2.10;;;;;;;11.99;79.67;101282.88;5014238;28;20050;-83
2022/09/17 00:21:30;;;;;;;11.30;2.30;;;;;;;12.00;80.08;101279.38;5014102;28;20038;-83
2022/09/17 00:23:59;;;;;;;11.10;2.50;;;;;;;12.06;79.51;101267.94;5013716;28;20494;-83
2022/09/17 00:26:25;;;;;;;12.38;2.60;;;;;;;12.09;79.44;101273.28;5014156;28;20474;-83
2022/09/17 00:28:56;;;;;;;11.07;2.50;;;;;;;12.06;79.17;101271.50;5013256;28;20030;-83
2022/09/17 00:31:22;;;;;;;9.90;2.28;;;;;;;12.05;79.10;101272.38;5014059;28;20041;-83
2022/09/17 00:33:48;;;;;;;8.77;2.30;;;;;;;12.02;79.12;101269.66;5013613;28;20030;-82
2022/09/17 00:36:14;;;;;;;8.48;2.20;;;;;;;12.09;79.23;101284.78;5013526;28;20026;-82
2022/09/17 00:38:39;;;;;;;8.93;2.42;;;;;;;12.03;79.01;101269.72;4995983;28;20038;-83
2022/09/17 00:41:06;;;;;;;7.90;2.03;;;;;;;12.13;79.19;101285.72;5017265;28;20038;-82
2022/09/17 00:43:45;;;;;;;8.93;2.05;;;;;;;12.15;78.63;101294.53;5000432;28;20362;-82
2022/09/17 00:46:22;;;;;;;12.35;2.28;;;;;;;12.16;78.64;101291.00;5017459;28;20034;-82
2022/09/17 00:48:49;;;;;;;9.25;2.20;;;;;;;12.13;78.33;101283.06;5017089;28;20033;-82
2022/09/17 00:51:19;;;;;;;12.18;2.28;;;;;;;12.14;79.07;101295.41;5017253;28;20121;-83
2022/09/17 00:53:45;;;;;;;10.90;2.22;;;;;;;12.10;78.34;101285.66;5017110;28;20470;-83
2022/09/17 00:56:27;;;;;;;9.57;2.55;;;;;;;12.15;78.44;101297.19;4999505;28;20041;-83
2022/09/17 00:58:54;;;;;;;8.88;2.13;;;;;;;12.19;78.98;101301.66;4999666;28;20084;-83
2022/09/17 01:01:20;;;;;;;9.73;2.20;;;;;;;12.14;78.40;101292.78;4999676;28;20041;-82
2022/09/17 01:03:45;;;;;;;8.43;2.08;;;;;;;12.11;78.23;101304.22;5000016;28;20351;-83
2022/09/17 01:06:16;;;;;;;9.23;1.80;;;;;;;12.11;78.79;101304.22;5016726;28;20034;-82
2022/09/17 01:09:07;;;;;;;8.93;2.05;;;;;;;12.09;78.24;101308.63;5017256;28;20034;-83
2022/09/17 01:11:54;;;;;;;8.15;2.10;;;;;;;12.10;78.44;101301.56;5016677;28;20507;-83
2022/09/17 01:14:28;;;;;;;9.43;2.25;;;;;;;12.05;78.48;101311.22;4999062;28;20038;-83
2022/09/17 01:17:38;;;;;;;12.25;2.53;;;;;;;12.04;78.49;101299.72;5016874;28;20037;-84
2022/09/17 01:20:22;;;;;;;9.88;2.10;;;;;;;11.99;78.94;101299.69;4971393;28;20048;-83
2022/09/17 01:22:53;;;;;;;9.77;2.63;;;;;;;12.01;78.88;101299.69;4999473;28;20363;-82
2022/09/17 01:25:23;;;;;;;9.43;2.33;;;;;;;12.06;78.74;101312.97;5016802;28;20462;-82
2022/09/17 01:28:37;;;;;;;8.27;2.20;;;;;;;12.12;78.62;101328.94;5016337;28;20459;-82
2022/09/17 01:31:21;;;;;;;9.90;2.13;;;;;;;12.07;79.13;101315.63;5011670;28;20100;-82
2022/09/17 01:34:19;;;;;;;6.78;2.20;;;;;;;12.11;78.77;101319.22;4998795;28;20026;-82
2022/09/17 01:36:54;;;;;;;12.50;2.30;;;;;;;12.02;79.37;101307.63;5016777;28;20500;-82
2022/09/17 01:39:38;;;;;;;11.88;2.42;;;;;;;12.11;78.97;101319.22;5015948;28;20040;-82
2022/09/17 01:42:34;;;;;;;10.13;2.28;;;;;;;12.10;79.27;101314.81;4998456;28;20033;-82
2022/09/17 01:45:16;;;;;;;9.68;2.00;;;;;;;12.15;79.02;101324.56;5016062;28;20048;-81
2022/09/17 01:48:02;;;;;;;13.70;2.30;;;;;;;12.16;79.01;101318.44;4998750;28;20069;-82
2022/09/17 01:50:39;;;;;;;11.48;2.40;;;;;;;12.09;78.84;101319.22;5015263;28;20491;-82
2022/09/17 01:53:07;;;;;;;9.43;2.25;;;;;;;12.09;79.34;101331.56;5015672;28;20474;-82
2022/09/17 01:55:37;;;;;;;9.48;2.10;;;;;;;12.07;79.43;101323.59;4998308;28;20465;-82
2022/09/17 01:58:14;;;;;;;9.73;2.10;;;;;;;12.11;79.13;101328.06;4997929;28;20034;-82
2022/09/17 02:00:44;;;;;;;14.70;2.65;;;;;;;12.04;79.40;101328.88;5015987;28;20052;-82
2022/09/17 02:03:18;;;;;;;8.88;2.20;;;;;;;12.02;79.49;101323.53;5015703;28;20041;-82
2022/09/17 02:05:56;;;;;;;11.43;2.33;;;;;;;12.07;79.17;101326.22;5015325;28;20041;-82
2022/09/17 02:08:48;;;;;;;12.05;2.08;;;;;;;12.08;79.16;101330.69;5015422;28;20026;-83
2022/09/17 02:11:16;;;;;;;9.88;2.40;;;;;;;11.99;79.14;101322.59;5015562;28;20113;-82
2022/09/17 02:13:59;;;;;;;8.52;2.20;;;;;;;11.94;79.74;101322.53;5015471;28;20060;-82
2022/09/17 02:16:26;;;;;;;12.70;2.40;;;;;;;11.92;80.13;101337.53;5015437;28;20022;-83
2022/09/17 02:19:18;;;;;;;7.63;2.20;;;;;;;11.93;79.66;101331.38;5015379;28;20476;-82
2022/09/17 02:21:59;;;;;;;7.75;2.00;;;;;;;11.99;79.84;101335.84;5015919;28;20117;-83
2022/09/17 02:24:34;;;;;;;8.68;2.35;;;;;;;11.90;79.97;101333.06;5016015;28;20085;-82
2022/09/17 02:27:17;;;;;;;9.10;2.20;;;;;;;11.92;80.17;101334.88;5015588;28;20034;-82
2022/09/17 02:29:43;;;;;;;9.02;2.08;;;;;;;11.93;80.18;101331.38;5015544;28;20060;-83
2022/09/17 02:32:11;;;;;;;8.88;2.42;;;;;;;11.91;80.51;101327.81;5015376;28;20435;-82
2022/09/17 02:34:36;;;;;;;9.93;2.30;;;;;;;11.89;80.31;101332.19;5015136;28;20073;-82
2022/09/17 02:37:03;;;;;;;10.35;2.20;;;;;;;11.88;80.29;101343.66;5014794;28;20371;-83
2022/09/17 02:39:29;;;;;;;5.97;1.88;;;;;;;11.88;80.58;101342.78;4998155;28;20120;-83
2022/09/17 02:42:21;;;;;;;10.30;2.17;;;;;;;11.92;80.44;101347.25;5014952;28;20061;-83
2022/09/17 02:45:16;;;;;;;8.50;1.90;;;;;;;11.91;79.80;101351.66;5014886;28;20029;-82
2022/09/17 02:48:19;;;;;;;9.20;2.22;;;;;;;11.90;79.97;101346.31;5015173;28;20032;-82
2022/09/17 02:51:09;;;;;;;;;;;;;;;11.94;79.12;101353.44;5015153;28;20037;-82
2022/09/17 02:53:46;;;;;;;6.32;1.75;;;;;;;11.88;79.42;101348.06;5014941;28;20028;-82
2022/09/17 02:56:39;;;;;;;11.07;2.35;;;;;;;11.91;79.51;101343.72;5014792;28;20034;-82
2022/09/17 02:59:12;;;;;;;10.52;2.22;;;;;;;11.88;79.46;101354.25;4997400;28;20034;-82
2022/09/17 03:01:49;;;;;;;5.68;1.70;;;;;;;11.91;79.47;101354.31;5014388;28;20029;-82
2022/09/17 03:04:16;;;;;;;10.77;2.47;;;;;;;11.85;79.90;101338.31;4998151;28;20033;-83
2022/09/17 03:06:45;;;;;;;8.82;2.13;;;;;;;11.87;80.15;101335.72;5015310;28;20030;-83
2022/09/17 03:09:10;;;;;;;9.88;1.92;;;;;;;11.87;80.17;101339.25;4997746;28;20366;-84
2022/09/17 03:11:36;;;;;;;9.25;2.00;;;;;;;11.84;80.72;101333.00;5014365;28;20120;-83
2022/09/17 03:14:01;;;;;;;9.57;2.05;;;;;;;11.90;80.59;101349.84;5014460;28;20174;-83
2022/09/17 03:16:27;;;;;;;8.98;2.10;;;;;;;11.84;80.16;101347.13;5014695;28;20034;-83
2022/09/17 03:18:52;;;;;;;12.63;2.30;;;;;;;11.84;80.54;101343.59;5014346;28;20034;-83
2022/09/17 03:21:17;;;;;;;10.38;2.50;;;;;;;11.81;80.27;101344.41;5014883;28;20040;-83
2022/09/17 03:23:43;;;;;;;8.25;1.90;;;;;;;11.70;80.07;101332.78;5014029;28;20387;-83
2022/09/17 03:26:08;;;;;;;9.30;1.92;;;;;;;11.70;80.16;101336.31;5014272;28;20033;-82
2022/09/17 03:28:33;;;;;;;11.25;2.65;;;;;;;11.73;79.77;101343.41;5013931;28;20057;-83
2022/09/17 03:30:59;;;;;;;7.40;1.90;;;;;;;11.69;80.11;101347.78;5013842;28;20593;-83
2022/09/17 03:33:24;;;;;;;9.15;2.00;;;;;;;11.64;79.82;101332.69;5014673;28;20041;-83
2022/09/17 03:35:49;;;;;;;12.82;2.47;;;;;;;11.67;79.94;101348.63;5014668;28;20517;-82
2022/09/17 03:38:16;;;;;;;8.85;2.08;;;;;;;11.65;79.73;101348.63;4997046;28;20038;-83
2022/09/17 03:40:41;;;;;;;6.70;2.08;;;;;;;11.59;79.05;101347.63;4997061;28;20084;-83
2022/09/17 03:43:07;;;;;;;16.45;2.10;;;;;;;11.50;79.67;101337.78;5014181;28;20038;-83
2022/09/17 03:45:32;;;;;;;11.00;2.08;;;;;;;11.48;79.52;101340.44;4997227;28;20135;-83
2022/09/17 03:47:58;;;;;;;10.23;1.80;;;;;;;11.49;79.85;101336.91;4980383;28;20038;-82
2022/09/17 03:50:23;;;;;;;13.00;2.00;;;;;;;11.46;79.75;101335.97;5013944;28;20030;-85
2022/09/17 03:52:49;;;;;;;12.63;2.33;;;;;;;11.44;79.80;101341.25;4996605;28;20076;-82
2022/09/17 03:55:16;;;;;;;9.73;2.30;;;;;;;11.46;79.74;101349.19;5013612;28;20034;-82
2022/09/17 03:57:41;;;;;;;12.07;1.92;;;;;;;11.49;79.84;101352.78;5013912;28;20029;-82
2022/09/17 04:00:08;;;;;;;9.93;1.98;;;;;;;11.50;79.60;101348.38;4996208;28;20034;-82
2022/09/17 04:02:33;;;;;;;11.02;2.08;;;;;;;11.50;78.87;101343.97;4996483;28;20034;-82
2022/09/17 04:04:59;;;;;;;8.95;1.77;;;;;;;11.53;79.21;101345.78;5014146;28;20034;-82
2022/09/17 04:07:24;;;;;;;12.05;2.17;;;;;;;11.54;78.67;101353.75;5014304;28;20046;-83
2022/09/17 04:09:49;;;;;;;8.68;1.98;;;;;;;11.53;79.09;101354.63;5013851;28;20034;-82
2022/09/17 04:12:15;;;;;;;12.80;1.95;;;;;;;11.54;78.74;101366.09;5013695;28;20382;-82
2022/09/17 04:14:40;;;;;;;4.82;1.55;;;;;;;11.50;78.84;101365.16;4999456;28;20036;-83
2022/09/17 04:17:06;;;;;;;8.88;2.03;;;;;;;11.51;79.04;101373.97;5017672;28;20037;-82
2022/09/17 04:19:31;;;;;;;10.48;2.35;;;;;;;11.47;78.54;101366.84;5000073;28;20480;-82
2022/09/17 04:21:56;;;;;;;8.75;2.10;;;;;;;11.46;79.01;101365.06;5017298;28;20066;-82
2022/09/17 04:24:22;;;;;;;9.15;2.00;;;;;;;11.50;79.00;101369.56;5017322;28;20061;-82
2022/09/17 04:26:47;;;;;;;11.68;2.00;;;;;;;11.48;79.02;101374.84;4999998;28;20385;-82
2022/09/17 04:29:13;;;;;;;8.38;2.20;;;;;;;11.43;78.99;101359.72;5017191;28;20085;-83
2022/09/17 04:31:39;;;;;;;13.38;2.20;;;;;;;11.51;78.64;101368.69;5017061;28;20437;-82
2022/09/17 04:34:04;;;;;;;9.80;2.03;;;;;;;11.51;79.18;101372.22;4999758;28;20040;-82
2022/09/17 04:36:30;;;;;;;11.48;2.15;;;;;;;11.49;78.59;101367.78;5017294;28;20033;-83
2022/09/17 04:38:55;;;;;;;9.13;2.10;;;;;;;11.49;79.13;101371.31;5017589;28;20042;-83
2022/09/17 04:41:20;;;;;;;11.90;1.92;;;;;;;11.53;79.36;101366.97;5017679;28;20443;-82
2022/09/17 04:43:46;;;;;;;8.70;2.00;;;;;;;11.59;79.31;101374.97;5000134;28;20096;-82
2022/09/17 04:46:13;;;;;;;9.82;2.10;;;;;;;11.62;79.09;101368.84;5017198;28;20068;-82
2022/09/17 04:48:38;;;;;;;9.75;1.90;;;;;;;11.66;79.36;101368.91;5016802;28;20121;-82
2022/09/17 04:51:04;;;;;;;4.05;1.67;;;;;;;11.65;79.72;101364.50;4999379;28;20117;-82
2022/09/17 04:53:29;;;;;;;6.40;2.03;;;;;;;11.64;79.09;101375.03;5017250;28;20460;-82
2022/09/17 04:55:55;;;;;;;9.98;1.80;;;;;;;11.57;79.71;101367.91;5016702;28;20037;-83
2022/09/17 04:58:20;;;;;;;6.93;1.90;;;;;;;11.54;79.32;101366.97;5016658;28;20502;-82
2022/09/17 05:00:45;;;;;;;12.23;2.00;;;;;;;11.47;79.73;101365.09;5016895;28;20034;-82
2022/09/17 05:03:11;;;;;;;8.55;2.15;;;;;;;11.43;79.50;101362.38;5016872;28;20116;-82
2022/09/17 05:05:36;;;;;;;13.05;2.10;;;;;;;11.41;79.84;101372.94;5016744;28;20034;-83
2022/09/17 05:08:02;;;;;;;11.45;2.28;;;;;;;11.37;80.09;101376.41;5016804;28;20386;-83
2022/09/17 05:10:28;;;;;;;8.05;2.00;;;;;;;11.31;79.88;101367.50;5017139;28;20030;-82
2022/09/17 05:12:55;;;;;;;10.57;2.00;;;;;;;11.30;79.93;101369.22;5017222;28;20381;-82
2022/09/17 05:15:21;;;;;;;8.80;2.25;;;;;;;11.28;80.16;101374.50;4999242;28;20133;-82
2022/09/17 05:17:46;;;;;;;9.57;2.10;;;;;;;11.33;79.71;101378.97;4998953;28;20038;-82
2022/09/17 05:20:13;;;;;;;15.80;2.60;;;;;;;11.37;79.37;101380.81;5016544;28;20088;-83
2022/09/17 05:22:47;;;;;;;10.93;2.38;;;;;;;11.37;79.18;101384.34;5016445;28;20029;-83
2022/09/17 05:25:14;;;;;;;9.88;2.28;;;;;;;11.30;79.65;101382.44;4998049;28;20045;-82
2022/09/17 05:27:39;;;;;;;6.38;1.90;;;;;;;11.30;79.42;101382.44;5016884;28;20124;-82
2022/09/17 05:30:06;;;;;;;9.32;2.50;;;;;;;11.25;79.37;101390.31;5016786;28;20054;-82
2022/09/17 05:32:31;;;;;;;5.95;1.80;;;;;;;11.24;79.33;101387.66;4999520;28;20538;-82
2022/09/17 05:34:56;;;;;;;9.38;2.10;;;;;;;11.23;79.12;101400.00;5016241;28;20117;-83
2022/09/17 05:37:22;;;;;;;14.48;2.55;;;;;;;11.22;79.81;101394.66;5016149;28;20080;-82
2022/09/17 05:39:47;;;;;;;8.68;1.80;;;;;;;11.21;79.42;101391.13;4998590;28;20471;-82
2022/09/17 05:42:12;;;;;;;10.82;2.30;;;;;;;11.25;79.31;101400.00;5015853;28;20041;-82
2022/09/17 05:44:38;;;;;;;8.82;2.10;;;;;;;11.17;79.51;101396.34;5016089;28;20481;-82
2022/09/17 05:47:03;;;;;;;11.15;2.10;;;;;;;11.27;79.36;101407.13;5015746;28;20117;-82
2022/09/17 05:49:29;;;;;;;11.25;2.17;;;;;;;11.31;79.96;101400.13;5016291;28;20149;-82
2022/09/17 05:51:54;;;;;;;12.43;2.35;;;;;;;11.35;79.93;101404.63;5015802;28;20033;-83
2022/09/17 05:54:20;;;;;;;10.05;2.13;;;;;;;11.47;79.73;101403.91;5015892;28;20525;-82
2022/09/17 05:56:45;;;;;;;9.10;2.17;;;;;;;11.45;78.78;101389.75;5015850;28;20038;-82
2022/09/17 05:59:11;;;;;;;12.27;2.42;;;;;;;11.53;79.51;101409.31;5016331;28;20033;-82
2022/09/17 06:01:36;;;;;;;8.50;2.10;;;;;;;11.65;79.59;101416.53;5016346;28;20037;-82
2022/09/17 06:04:03;;;;;;;11.18;2.30;;;;;;;11.80;79.55;101427.38;5015956;28;20072;-82
2022/09/17 06:06:29;;;;;;;8.13;1.95;;;;;;;11.91;78.80;101425.81;5015823;28;20058;-82
2022/09/17 06:08:58;;;;;;;11.23;2.22;;;;;;;11.89;78.86;101443.41;5015876;28;20113;-83
2022/09/17 06:11:23;;;;;;;9.15;2.35;;;;;;;11.82;78.88;101438.88;5015748;28;20033;-83
2022/09/17 06:13:52;;;;;;;7.95;2.15;;;;;;;11.82;79.54;101432.66;5015621;28;20030;-83
2022/09/17 06:16:17;;;;;;;10.32;2.65;;;;;;;11.74;79.11;101430.81;4997818;28;20034;-83
2022/09/17 06:18:43;;;;;;;8.70;2.20;;;;;;;11.70;79.27;101434.28;5016066;28;20096;-83
2022/09/17 06:21:08;;;;;;;11.73;2.30;;;;;;;11.70;79.06;101439.56;5015675;28;20030;-82
2022/09/17 06:23:36;;;;;;;8.43;2.22;;;;;;;11.67;79.19;101415.69;4997388;28;20141;-81
2022/09/17 06:26:03;;;;;;;7.68;2.55;;;;;;;11.66;79.12;101421.88;5015657;28;20026;-82
2022/09/17 06:28:29;;;;;;;7.13;2.10;;;;;;;11.72;79.68;101431.66;5015070;28;20034;-82
2022/09/17 06:31:02;;;;;;;9.88;1.95;;;;;;;11.72;78.96;101436.94;5015185;28;20037;-83
2022/09/17 06:33:29;;;;;;;11.93;2.00;;;;;;;11.65;79.09;101428.03;5015985;28;20021;-82
2022/09/17 06:36:00;;;;;;;7.38;2.40;;;;;;;11.70;78.53;101443.97;5015562;28;20030;-83
2022/09/17 06:38:30;;;;;;;6.18;1.75;;;;;;;11.71;78.65;101443.09;5014381;28;20037;-84
2022/09/17 06:40:56;;;;;;;7.13;2.03;;;;;;;11.73;78.92;101439.63;5015046;28;20080;-83
2022/09/17 06:43:22;;;;;;;6.90;2.00;;;;;;;11.64;78.72;101420.03;5015271;28;20033;-82
2022/09/17 06:46:07;;;;;;;7.90;2.28;;;;;;;11.70;79.20;101423.69;5014682;28;20165;-82
2022/09/17 06:48:34;;;;;;;7.95;1.80;;;;;;;11.81;78.81;101425.59;5015305;28;20022;-81
2022/09/17 06:51:12;;;;;;;6.40;2.20;;;;;;;11.76;79.18;101433.47;5014551;28;20037;-82
2022/09/17 06:53:38;;;;;;;8.75;2.40;;;;;;;11.81;79.16;101434.44;5014932;28;20026;-78
2022/09/17 06:56:05;;;;;;;6.28;2.10;;;;;;;11.78;79.01;101424.69;4997370;28;20534;-81
2022/09/17 06:58:31;;;;;;;7.70;2.10;;;;;;;11.85;79.14;101444.22;4997901;28;20048;-83
2022/09/17 07:01:00;;;;;;;7.10;2.00;;;;;;;11.93;79.09;101436.41;4997072;28;20033;-80
2022/09/17 07:03:27;;;;;;;12.25;2.10;;;;;;;12.16;78.91;101435.00;5014662;28;20466;-83
2022/09/17 07:05:52;;;;;;;7.53;2.08;;;;;;;12.41;78.00;101430.00;4996917;28;20393;-83
2022/09/17 07:08:17;;;;;;;9.52;2.03;;;;;;;12.63;76.25;101428.50;4996914;28;20029;-77
2022/09/17 07:10:43;;;;;;;8.32;2.20;;;;;;;12.82;76.14;101438.44;5014176;28;20068;-79
2022/09/17 07:13:08;;;;;;;8.98;1.98;;;;;;;13.14;75.28;101435.22;5014953;28;20469;-78
2022/09/17 07:15:34;;;;;;;6.32;1.80;;;;;;;13.41;73.60;101445.25;4996637;28;20065;-81
2022/09/17 07:18:01;;;;;;;7.05;1.85;;;;;;;13.60;72.02;101430.34;4996937;28;20490;-81
2022/09/17 07:20:26;;;;;;;4.85;1.58;;;;;;;13.82;70.74;101439.38;5014829;28;20049;-77
2022/09/17 07:22:56;;;;;;;4.78;1.65;;;;;;;14.21;70.83;101446.69;5014292;28;20386;-79
2022/09/17 07:25:23;;;;;;;5.43;1.60;;;;;;;14.50;69.10;101438.91;5014587;28;20050;-79
2022/09/17 07:27:49;;;;;;;6.60;1.50;;;;;;;14.70;69.47;101446.97;5014811;28;20034;-80
2022/09/17 07:30:14;;;;;;;5.78;1.60;;;;;;;14.87;66.87;101437.25;5014506;28;20045;-80
2022/09/17 07:32:40;;;;;;;5.15;1.63;;;;;;;15.08;65.25;101436.41;5013949;28;20034;-79
2022/09/17 07:35:06;;;;;;;7.88;1.77;;;;;;;15.32;66.12;101440.88;5014109;28;20030;-78
2022/09/17 07:37:32;;;;;;;7.60;1.80;;;;;;;15.39;64.51;101440.00;5014592;28;20378;-79
2022/09/17 07:39:57;;;;;;;7.43;2.00;;;;;;;15.50;63.31;101438.22;5014025;28;20379;-80
2022/09/17 07:42:23;;;;;;;7.72;1.80;;;;;;;15.63;64.13;101440.88;5014052;28;20131;-80
2022/09/17 07:44:48;;;;;;;7.22;1.67;;;;;;;15.84;64.17;101445.31;5014392;28;20124;-80
2022/09/17 07:47:13;;;;;;;6.53;1.70;;;;;;;16.22;63.25;101445.25;4996390;28;20466;-79
2022/09/17 07:49:39;;;;;;;8.35;1.88;;;;;;;16.48;62.31;101442.50;5013682;28;20030;-80
2022/09/17 07:52:05;;;;;;;7.05;1.73;;;;;;;16.57;61.13;101434.44;5013549;28;20147;-81
2022/09/17 07:54:32;;;;;;;6.60;1.65;;;;;;;16.74;61.69;101437.97;5014215;28;20038;-82
2022/09/17 07:56:58;;;;;;;6.95;1.73;;;;;;;17.01;60.96;101433.38;4996487;28;20375;-81
2022/09/17 07:59:23;;;;;;;5.57;1.85;;;;;;;17.35;60.57;101443.81;5014112;28;20038;-82
2022/09/17 08:01:49;;;;;;;7.18;1.92;;;;;;;17.27;59.45;101439.41;5014448;28;20041;-80
2022/09/17 08:04:15;;;;;;;6.45;1.90;;;;;;;17.42;59.69;101449.09;5013582;28;20112;-79
2022/09/17 08:06:40;;;;;;;5.97;1.65;;;;;;;17.41;59.90;101425.94;5013867;28;20536;-79
2022/09/17 08:09:06;;;;;;;7.57;2.00;;;;;;;17.62;59.61;101440.03;4979996;28;20037;-81
2022/09/17 08:11:32;;;;;;;6.68;1.80;;;;;;;17.75;57.13;101436.38;5013754;28;20034;-80
2022/09/17 08:13:57;;;;;;;4.07;1.63;;;;;;;18.01;57.44;101439.66;4996237;28;20065;-81
2022/09/17 08:16:23;;;;;;;5.75;1.70;;;;;;;17.92;54.27;101444.22;4996307;28;20038;-84
2022/09/17 08:18:54;;;;;;;7.43;1.75;;;;;;;17.99;55.29;101446.84;5014261;28;20034;-81
2022/09/17 08:21:20;;;;;;;5.43;1.70;;;;;;;18.13;55.05;101443.13;5014260;28;20026;-80
2022/09/17 08:23:46;;;;;;;7.97;1.80;;;;;;;18.10;55.41;101445.81;5014106;28;20057;-80
2022/09/17 08:26:14;;;;;;;9.80;1.90;;;;;;;17.92;54.98;101436.22;5013500;28;20034;-80
2022/09/17 08:28:47;;;;;;;6.13;1.85;;;;;;;18.13;55.11;101441.34;5013819;28;20034;-79
2022/09/17 08:31:13;;;;;;;4.53;1.60;;;;;;;18.33;54.63;101446.47;5013603;28;20026;-79
2022/09/17 08:33:39;;;;;;;6.13;1.90;;;;;;;18.37;55.62;101448.22;5013632;28;20359;-80
2022/09/17 08:36:07;;;;;;;7.40;1.83;;;;;;;18.59;55.04;101440.81;5013261;28;20573;-81
2022/09/17 08:38:37;;;;;;;5.38;1.77;;;;;;;18.85;56.00;101440.47;4996530;28;20045;-80
2022/09/17 08:41:11;;;;;;;9.55;2.13;;;;;;;19.04;54.36;101445.56;5013288;28;20450;-82
2022/09/17 08:44:14;;;;;;;8.02;1.92;;;;;;;19.21;55.51;101440.84;4995835;28;20458;-81
2022/09/17 08:46:49;;;;;;;;;;;;;;;19.50;56.73;101448.41;5014417;28;20022;-82
2022/09/17 08:49:27;;;;;;;6.55;2.08;;;;;;;19.50;53.02;101445.75;5013384;28;19913;-79
2022/09/17 08:52:49;;;;;;;9.85;2.08;;;;;;;19.75;54.94;101446.25;5013672;28;20050;-78
2022/09/17 08:55:21;;;;;;;5.80;1.80;;;;;;;19.95;51.78;101445.88;4953547;29;20046;-79
2022/09/17 08:58:04;;;;;;;7.90;2.20;;;;;;;20.13;51.68;101444.66;4937236;29;20035;-78
2022/09/17 09:00:42;;;;;;;7.78;2.00;;;;;;;20.25;51.25;101439.91;4998954;28;20048;-80
2022/09/17 09:03:37;;;;;;;5.47;1.90;;;;;;;20.14;50.68;101441.06;5016866;28;20037;-81
2022/09/17 09:06:03;;;;;;;12.38;2.33;;;;;;;19.74;50.04;101441.78;4999667;28;20061;-79
2022/09/17 09:08:34;;;;;;;7.35;1.80;;;;;;;19.38;52.33;101449.50;5017656;28;20445;-79
2022/09/17 09:11:13;;;;;;;6.95;2.22;;;;;;;19.04;55.01;101446.44;5016662;28;20029;-81
2022/09/17 09:13:54;;;;;;;11.48;2.10;;;;;;;18.64;55.39;101459.47;5016692;28;20037;-80
2022/09/17 09:16:24;;;;;;;6.68;1.90;;;;;;;18.17;57.53;101466.28;5016436;28;20034;-80
2022/09/17 09:18:58;;;;;;;5.63;1.90;;;;;;;17.64;59.01;101446.22;5016645;28;20026;-85
2022/09/17 09:21:51;;;;;;;8.55;2.38;;;;;;;17.47;61.20;101449.03;5016833;28;20034;-86
2022/09/17 09:24:25;;;;;;;8.02;2.80;;;;;;;17.76;62.98;101456.84;5016199;28;20509;-84
2022/09/17 09:26:53;;;;;;;8.10;3.40;;;;;;;18.21;59.34;101454.63;5017062;28;20117;-84
2022/09/17 09:29:40;;;;;;;8.80;3.30;;;;;;;18.69;57.75;101454.94;5016388;28;20084;-84
2022/09/17 09:32:11;;;;;;;7.40;2.25;;;;;;;19.14;57.96;101463.25;5016390;28;20029;-84
2022/09/17 09:34:37;;;;;;;11.98;3.00;;;;;;;19.43;55.21;101465.50;5016360;28;20021;-87
2022/09/17 09:37:22;;;;;;;6.07;1.80;;;;;;;19.39;52.68;101472.69;4982801;28;20533;-83
2022/09/17 09:39:50;;;;;;;5.75;1.60;;;;;;;19.06;51.95;101463.41;4999020;28;20026;-80
2022/09/17 09:42:26;;;;;;;4.28;1.60;;;;;;;18.85;53.14;101463.69;5015903;28;20037;-81
2022/09/17 09:44:51;;;;;;;4.20;1.60;;;;;;;18.84;54.39;101460.09;5016451;28;20029;-81
2022/09/17 09:47:39;;;;;;;3.97;1.38;;;;;;;19.17;52.34;101455.19;5016843;28;20037;-81
2022/09/17 09:50:33;;;;;;;4.80;1.58;;;;;;;19.48;53.53;101453.78;5001202;28;20113;-81
2022/09/17 09:53:13;;;;;;;4.25;1.42;;;;;;;19.96;53.01;101461.97;5015731;28;20390;-83
2022/09/17 09:55:47;;;;;;;5.35;1.77;;;;;;;20.23;51.76;101449.81;5015921;28;20466;-82
2022/09/17 09:58:20;;;;;;;4.18;1.52;;;;;;;20.47;50.84;101452.91;5015913;28;20057;-79
2022/09/17 10:00:46;;;;;;;6.47;1.75;;;;;;;20.62;46.13;101468.75;5016632;28;20092;-80
2022/09/17 10:03:22;;;;;;;7.65;1.40;;;;;;;20.14;47.78;101455.34;5016602;28;20481;-76
2022/09/17 10:05:56;;;;;;;3.63;1.63;;;;;;;19.72;48.27;101451.66;5015332;28;20021;-77
2022/09/17 10:08:22;;;;;;;6.20;1.67;;;;;;;19.66;49.03;101460.69;5015613;28;20030;-77
2022/09/17 10:10:57;;;;;;;6.10;2.85;;;;;;;19.66;48.22;101457.13;4981571;28;20057;-78
2022/09/17 10:13:23;;;;;;;6.22;1.50;;;;;;;19.84;49.63;101455.94;5016162;28;20068;-84
2022/09/17 10:15:48;;;;;;;6.05;1.65;;;;;;;19.96;47.55;101442.31;5015289;28;20439;-80
2022/09/17 10:18:15;;;;;;;8.02;1.80;;;;;;;20.02;46.31;101456.47;5015122;28;20065;-81
2022/09/17 10:20:51;;;;;;;4.60;1.55;;;;;;;20.06;46.60;101457.28;5015426;28;20038;-77
2022/09/17 10:23:16;;;;;;;8.18;1.80;;;;;;;19.99;47.93;101459.19;5015142;28;20028;-77
2022/09/17 10:25:42;;;;;;;3.88;1.42;;;;;;;20.43;47.27;101457.47;5015401;28;20485;-77
2022/09/17 10:28:27;;;;;;;5.10;1.80;;;;;;;20.72;47.75;101464.06;4997810;28;20029;-77
2022/09/17 10:30:58;;;;;;;3.80;1.50;;;;;;;20.60;48.24;101462.53;5015165;28;20560;-82
2022/09/17 10:33:29;;;;;;;4.22;1.60;;;;;;;20.28;46.63;101455.09;5015250;28;20030;-75
2022/09/17 10:35:56;;;;;;;5.35;2.00;;;;;;;20.14;46.44;101457.16;5015467;28;20033;-81
2022/09/17 10:38:30;;;;;;;4.47;1.60;;;;;;;20.11;47.92;101449.16;4997802;28;20041;-76
2022/09/17 10:41:09;;;;;;;2.72;1.50;;;;;;;20.30;47.75;101452.34;5014815;28;20084;-75
2022/09/17 10:43:34;;;;;;;3.03;1.38;;;;;;;20.76;47.40;101441.59;5014918;28;20065;-82
2022/09/17 10:46:01;;;;;;;5.20;1.70;;;;;;;20.70;45.34;101439.03;5015728;28;20068;-79
2022/09/17 10:48:31;;;;;;;3.42;1.40;;;;;;;20.88;49.21;101441.31;4997376;28;20116;-78
2022/09/17 10:50:57;;;;;;;6.28;2.60;;;;;;;20.71;44.93;101433.63;5014943;28;20113;-80
2022/09/17 10:53:26;;;;;;;6.18;2.15;;;;;;;21.04;45.51;101438.28;5015113;28;20078;-79
2022/09/17 10:56:24;;;;;;;5.93;2.13;;;;;;;21.15;46.10;101438.91;5014803;28;20096;-82
2022/09/17 10:58:59;;;;;;;7.20;1.60;;;;;;;20.96;45.42;101435.78;5015942;28;20036;-81
2022/09/17 11:01:49;;;;;;;4.75;1.40;;;;;;;21.19;46.31;101440.59;4999565;28;20369;-81
2022/09/17 11:04:32;;;;;;;4.80;1.50;;;;;;;21.19;46.23;101443.28;5016798;28;20116;-82
2022/09/17 11:07:15;;;;;;;8.93;1.65;;;;;;;21.29;45.15;101430.53;5014898;28;20026;-81
2022/09/17 11:10:05;;;;;;;6.68;1.80;;;;;;;21.47;45.84;101427.41;5014866;28;20044;-80
2022/09/17 11:12:57;;;;;;;4.47;1.65;;;;;;;21.48;44.87;101431.88;5014385;28;20037;-81
2022/09/17 11:15:28;;;;;;;4.63;1.40;;;;;;;21.35;44.27;101422.34;5007489;28;20095;-81
2022/09/17 11:18:12;;;;;;;5.30;1.73;;;;;;;21.25;44.57;101422.53;5014448;28;20037;-82
2022/09/17 11:20:47;;;;;;;7.20;1.60;;;;;;;21.02;43.80;101419.50;5014232;28;20030;-81
2022/09/17 11:23:22;;;;;;;6.63;1.90;;;;;;;20.99;44.46;101408.84;5013359;28;20037;-81
2022/09/17 11:25:59;;;;;;;8.73;1.80;;;;;;;21.08;45.27;101410.44;4997006;28;20033;-81
2022/09/17 11:29:01;;;;;;;6.45;1.70;;;;;;;21.46;44.60;101412.22;5014885;28;20109;-80
2022/09/17 11:31:32;;;;;;;4.20;1.75;;;;;;;21.77;43.27;101414.09;5014248;28;20030;-75
2022/09/17 11:34:21;;;;;;;5.10;1.63;;;;;;;21.78;43.08;101403.28;5014260;28;20493;-81
2022/09/17 11:37:11;;;;;;;6.53;1.60;;;;;;;22.05;43.27;101433.94;5013910;28;20017;-79
2022/09/17 11:39:53;;;;;;;3.72;1.50;;;;;;;21.92;42.98;101419.06;5013852;28;20021;-80
2022/09/17 11:42:26;;;;;;;5.32;1.65;;;;;;;21.88;43.02;101423.63;5014166;28;20056;-80
2022/09/17 11:45:01;;;;;;;5.63;1.63;;;;;;;21.94;42.33;101414.53;5014091;28;20040;-80